createdAt,value
2023-11-13T00:00:03.176Z,97591.00
2023-11-13T00:00:13.172Z,97593.00
2023-11-13T00:00:23.184Z,97597.00
2023-11-13T00:00:33.209Z,97601.00
2023-11-13T00:00:43.318Z,97605.00
2023-11-13T00:00:53.266Z,97595.00
2023-11-13T00:01:03.357Z,97589.00
2023-11-13T00:01:13.398Z,97595.00
2023-11-13T00:01:23.453Z,97599.00
2023-11-13T00:01:33.466Z,97607.00
2023-11-13T00:01:43.471Z,97603.00
2023-11-13T00:01:53.475Z,97595.00
2023-11-13T00:02:03.486Z,97609.00
2023-11-13T00:02:13.493Z,97593.00
2023-11-13T00:02:23.590Z,97597.00
2023-11-13T00:02:33.781Z,97591.00
2023-11-13T00:02:43.701Z,97591.00
2023-11-13T00:02:53.708Z,97595.00
2023-11-13T00:03:03.935Z,97599.00
2023-11-13T00:03:14.244Z,97601.00
2023-11-13T00:03:24.174Z,97605.00
2023-11-13T00:03:34.226Z,97605.00
2023-11-13T00:03:44.538Z,97607.00
2023-11-13T00:03:54.488Z,97599.00
2023-11-13T00:04:04.628Z,97605.00
2023-11-13T00:04:14.532Z,97607.00
2023-11-13T00:04:24.666Z,97593.00
2023-11-13T00:04:34.687Z,97625.00
2023-11-13T00:04:44.682Z,97619.00
2023-11-13T00:04:54.703Z,97599.00
2023-11-13T00:05:04.731Z,97599.00
2023-11-13T00:05:14.734Z,97601.00
2023-11-13T00:05:24.732Z,97603.00
2023-11-13T00:05:34.773Z,97597.00
2023-11-13T00:05:44.812Z,97601.00
2023-11-13T00:05:54.847Z,97605.00
2023-11-13T00:06:04.846Z,97599.00
2023-11-13T00:06:14.927Z,97601.00
2023-11-13T00:06:24.941Z,97601.00
2023-11-13T00:06:34.960Z,97597.00
2023-11-13T00:06:44.993Z,97599.00
2023-11-13T00:06:55.181Z,97597.00
2023-11-13T00:07:05.293Z,97597.00
2023-11-13T00:07:15.357Z,97601.00
2023-11-13T00:07:25.378Z,97595.00
2023-11-13T00:07:35.379Z,97591.00
2023-11-13T00:07:45.396Z,97595.00
2023-11-13T00:07:55.527Z,97599.00
2023-11-13T00:08:05.530Z,97599.00
2023-11-13T00:08:15.537Z,97597.00
2023-11-13T00:08:25.538Z,97585.00
2023-11-13T00:08:35.546Z,97597.00
2023-11-13T00:08:45.548Z,97599.00
2023-11-13T00:08:55.591Z,97599.00
2023-11-13T00:09:05.607Z,97595.00
2023-11-13T00:09:15.608Z,97595.00
2023-11-13T00:09:25.609Z,97597.00
2023-11-13T00:09:35.613Z,97601.00
2023-11-13T00:09:45.665Z,97595.00
2023-11-13T00:09:55.753Z,97595.00
2023-11-13T00:10:05.794Z,97603.00
2023-11-13T00:10:15.842Z,97591.00
2023-11-13T00:10:25.894Z,97589.00
2023-11-13T00:10:35.935Z,97591.00
2023-11-13T00:10:45.942Z,97589.00
2023-11-13T00:10:55.949Z,97595.00
2023-11-13T00:11:05.968Z,97597.00
2023-11-13T00:11:15.971Z,97599.00
2023-11-13T00:11:25.982Z,97589.00
2023-11-13T00:11:35.984Z,97585.00
2023-11-13T00:11:46.017Z,97585.00
2023-11-13T00:11:56.010Z,97587.00
2023-11-13T00:12:06.033Z,97593.00
2023-11-13T00:12:16.023Z,97591.00
2023-11-13T00:12:26.038Z,97591.00
2023-11-13T00:12:36.058Z,97593.00
2023-11-13T00:12:46.087Z,97589.00
2023-11-13T00:12:56.084Z,97591.00
2023-11-13T00:13:06.162Z,97585.00
2023-11-13T00:13:16.210Z,97582.00
2023-11-13T00:13:26.274Z,97583.00
2023-11-13T00:13:36.283Z,97582.00
2023-11-13T00:13:46.288Z,97580.00
2023-11-13T00:13:56.305Z,97585.00
2023-11-13T00:14:06.297Z,97582.00
2023-11-13T00:14:16.295Z,97583.00
2023-11-13T00:14:26.330Z,97595.00
2023-11-13T00:14:36.321Z,97601.00
2023-11-13T00:14:46.336Z,97597.00
2023-11-13T00:14:56.345Z,97585.00
2023-11-13T00:15:06.371Z,97578.00
2023-11-13T00:15:16.357Z,97582.00
2023-11-13T00:15:26.370Z,97591.00
2023-11-13T00:15:36.373Z,97585.00
2023-11-13T00:15:46.585Z,97589.00
2023-11-13T00:15:56.409Z,97585.00
2023-11-13T00:16:06.626Z,97583.00
2023-11-13T00:16:16.605Z,97589.00
2023-11-13T00:16:26.592Z,97591.00
2023-11-13T00:16:36.660Z,97595.00
2023-11-13T00:16:47.815Z,97593.00
2023-11-13T00:16:56.835Z,97585.00
2023-11-13T00:17:06.797Z,97582.00
2023-11-13T00:17:17.061Z,97585.00
2023-11-13T00:17:27.098Z,97585.00
2023-11-13T00:17:37.118Z,97589.00
2023-11-13T00:17:47.146Z,97591.00
2023-11-13T00:17:57.147Z,97591.00
2023-11-13T00:18:07.330Z,97593.00
2023-11-13T00:18:17.275Z,97595.00
2023-11-13T00:18:27.354Z,97595.00
2023-11-13T00:18:37.337Z,97593.00
2023-11-13T00:18:47.399Z,97593.00
2023-11-13T00:18:57.731Z,97591.00
2023-11-13T00:19:07.795Z,97589.00
2023-11-13T00:19:17.869Z,97580.00
2023-11-13T00:19:27.898Z,97583.00
2023-11-13T00:19:37.896Z,97585.00
2023-11-13T00:19:47.909Z,97587.00
2023-11-13T00:19:57.917Z,97589.00
2023-11-13T00:20:07.928Z,97587.00
2023-11-13T00:20:17.936Z,97587.00
2023-11-13T00:20:27.955Z,97585.00
2023-11-13T00:20:37.959Z,97583.00
2023-11-13T00:20:47.977Z,97585.00
2023-11-13T00:20:57.976Z,97583.00
2023-11-13T00:21:08.002Z,97582.00
2023-11-13T00:21:18.027Z,97585.00
2023-11-13T00:21:28.024Z,97585.00
2023-11-13T00:21:38.027Z,97585.00
2023-11-13T00:21:48.085Z,97587.00
2023-11-13T00:21:58.135Z,97593.00
2023-11-13T00:22:08.122Z,97593.00
2023-11-13T00:22:18.185Z,97589.00
2023-11-13T00:22:28.230Z,97583.00
2023-11-13T00:22:38.254Z,97583.00
2023-11-13T00:22:48.256Z,97587.00
2023-11-13T00:22:58.516Z,97589.00
2023-11-13T00:23:08.633Z,97582.00
2023-11-13T00:23:18.646Z,97580.00
2023-11-13T00:23:28.927Z,97582.00
2023-11-13T00:23:38.933Z,97583.00
2023-11-13T00:23:48.944Z,97583.00
2023-11-13T00:23:58.958Z,97583.00
2023-11-13T00:24:08.964Z,97578.00
2023-11-13T00:24:18.974Z,97578.00
2023-11-13T00:24:28.984Z,97578.00
2023-11-13T00:24:38.995Z,97574.00
2023-11-13T00:24:49.126Z,97574.00
2023-11-13T00:24:59.055Z,97576.00
2023-11-13T00:25:09.163Z,97576.00
2023-11-13T00:25:19.112Z,97574.00
2023-11-13T00:25:29.111Z,97576.00
2023-11-13T00:25:39.112Z,97580.00
2023-11-13T00:25:49.264Z,97582.00
2023-11-13T00:25:59.273Z,97574.00
2023-11-13T00:26:09.284Z,97574.00
2023-11-13T00:26:19.292Z,97574.00
2023-11-13T00:26:29.306Z,97578.00
2023-11-13T00:26:39.315Z,97585.00
2023-11-13T00:26:49.334Z,97583.00
2023-11-13T00:26:59.337Z,97580.00
2023-11-13T00:27:09.357Z,97582.00
2023-11-13T00:27:19.353Z,97585.00
2023-11-13T00:27:29.364Z,97585.00
2023-11-13T00:27:39.368Z,97580.00
2023-11-13T00:27:49.439Z,97580.00
2023-11-13T00:27:59.471Z,97582.00
2023-11-13T00:28:09.541Z,97580.00
2023-11-13T00:28:19.599Z,97578.00
2023-11-13T00:28:29.588Z,97578.00
2023-11-13T00:28:39.590Z,97580.00
2023-11-13T00:28:49.614Z,97583.00
2023-11-13T00:28:59.611Z,97585.00
2023-11-13T00:29:09.631Z,97585.00
2023-11-13T00:29:19.646Z,97583.00
2023-11-13T00:29:29.649Z,97578.00
2023-11-13T00:29:39.652Z,97578.00
2023-11-13T00:29:49.711Z,97582.00
2023-11-13T00:29:59.719Z,97582.00
2023-11-13T00:30:09.751Z,97580.00
2023-11-13T00:30:19.730Z,97585.00
2023-11-13T00:30:29.741Z,97585.00
2023-11-13T00:30:39.752Z,97583.00
2023-11-13T00:30:49.826Z,97587.00
2023-11-13T00:31:00.013Z,97582.00
2023-11-13T00:31:09.948Z,97572.00
2023-11-13T00:31:20.025Z,97576.00
2023-11-13T00:31:30.248Z,97578.00
2023-11-13T00:31:40.201Z,97583.00
2023-11-13T00:31:50.245Z,97585.00
2023-11-13T00:32:00.395Z,97583.00
2023-11-13T00:32:10.605Z,97583.00
2023-11-13T00:32:20.674Z,97582.00
2023-11-13T00:32:30.771Z,97585.00
2023-11-13T00:32:40.798Z,97583.00
2023-11-13T00:32:50.843Z,97576.00
2023-11-13T00:33:00.885Z,97578.00
2023-11-13T00:33:10.957Z,97585.00
2023-11-13T00:33:20.950Z,97587.00
2023-11-13T00:33:30.959Z,97587.00
2023-11-13T00:33:40.960Z,97580.00
2023-11-13T00:33:51.030Z,97583.00
2023-11-13T00:34:01.114Z,97587.00
2023-11-13T00:34:11.218Z,97591.00
2023-11-13T00:34:21.313Z,97587.00
2023-11-13T00:34:31.289Z,97582.00
2023-11-13T00:34:41.295Z,97589.00
2023-11-13T00:34:51.351Z,97597.00
2023-11-13T00:35:01.537Z,97589.00
2023-11-13T00:35:11.543Z,97583.00
2023-11-13T00:35:21.546Z,97578.00
2023-11-13T00:35:31.553Z,97576.00
2023-11-13T00:35:41.559Z,97574.00
2023-11-13T00:35:51.565Z,97576.00
2023-11-13T00:36:01.569Z,97576.00
2023-11-13T00:36:11.578Z,97576.00
2023-11-13T00:36:21.596Z,97574.00
2023-11-13T00:36:31.599Z,97566.00
2023-11-13T00:36:41.672Z,97568.00
2023-11-13T00:36:51.698Z,97574.00
2023-11-13T00:37:01.710Z,97578.00
2023-11-13T00:37:11.771Z,97576.00
2023-11-13T00:37:21.836Z,97580.00
2023-11-13T00:37:31.829Z,97580.00
2023-11-13T00:37:41.833Z,97576.00
2023-11-13T00:37:51.852Z,97574.00
2023-11-13T00:38:01.865Z,97576.00
2023-11-13T00:38:11.885Z,97576.00
2023-11-13T00:38:21.873Z,97572.00
2023-11-13T00:38:31.888Z,97570.00
2023-11-13T00:38:41.898Z,97570.00
2023-11-13T00:38:51.911Z,97570.00
2023-11-13T00:39:01.911Z,97570.00
2023-11-13T00:39:11.930Z,97570.00
2023-11-13T00:39:21.942Z,97564.00
2023-11-13T00:39:31.950Z,97560.00
2023-11-13T00:39:41.953Z,97554.00
2023-11-13T00:39:51.991Z,97562.00
2023-11-13T00:40:02.041Z,97566.00
2023-11-13T00:40:12.105Z,97572.00
2023-11-13T00:40:22.213Z,97566.00
2023-11-13T00:40:32.197Z,97554.00
2023-11-13T00:40:42.223Z,97556.00
2023-11-13T00:40:52.222Z,97558.00
2023-11-13T00:41:03.409Z,97556.00
2023-11-13T00:41:12.308Z,97558.00
2023-11-13T00:41:22.304Z,97562.00
2023-11-13T00:41:32.312Z,97556.00
2023-11-13T00:41:42.435Z,97544.00
2023-11-13T00:41:52.370Z,97546.00
2023-11-13T00:42:02.389Z,97550.00
2023-11-13T00:42:12.415Z,97550.00
2023-11-13T00:42:22.421Z,97550.00
2023-11-13T00:42:32.420Z,97550.00
2023-11-13T00:42:42.430Z,97552.00
2023-11-13T00:42:52.463Z,97554.00
2023-11-13T00:43:02.476Z,97550.00
2023-11-13T00:43:12.517Z,97546.00
2023-11-13T00:43:22.539Z,97546.00
2023-11-13T00:43:32.541Z,97546.00
2023-11-13T00:43:42.545Z,97546.00
2023-11-13T00:43:52.578Z,97556.00
2023-11-13T00:44:02.571Z,97554.00
2023-11-13T00:44:12.578Z,97552.00
2023-11-13T00:44:22.597Z,97546.00
2023-11-13T00:44:32.600Z,97540.00
2023-11-13T00:44:42.601Z,97538.00
2023-11-13T00:44:52.634Z,97542.00
2023-11-13T00:45:02.656Z,97546.00
2023-11-13T00:45:12.692Z,97552.00
2023-11-13T00:45:22.679Z,97554.00
2023-11-13T00:45:32.692Z,97552.00
2023-11-13T00:45:42.850Z,97548.00
2023-11-13T00:45:52.830Z,97550.00
2023-11-13T00:46:02.860Z,97558.00
2023-11-13T00:46:12.945Z,97550.00
2023-11-13T00:46:23.047Z,97548.00
2023-11-13T00:46:33.190Z,97548.00
2023-11-13T00:46:43.232Z,97552.00
2023-11-13T00:46:53.253Z,97558.00
2023-11-13T00:47:03.312Z,97558.00
2023-11-13T00:47:13.569Z,97560.00
2023-11-13T00:47:23.571Z,97560.00
2023-11-13T00:47:33.620Z,97562.00
2023-11-13T00:47:43.732Z,97566.00
2023-11-13T00:47:53.760Z,97560.00
2023-11-13T00:48:03.780Z,97560.00
2023-11-13T00:48:13.791Z,97564.00
2023-11-13T00:48:23.805Z,97570.00
2023-11-13T00:48:33.816Z,97558.00
2023-11-13T00:48:43.874Z,97560.00
2023-11-13T00:48:53.880Z,97572.00
2023-11-13T00:49:03.908Z,97570.00
2023-11-13T00:49:13.959Z,97564.00
2023-11-13T00:49:24.005Z,97570.00
2023-11-13T00:49:33.998Z,97556.00
2023-11-13T00:49:44.003Z,97554.00
2023-11-13T00:49:54.007Z,97560.00
2023-11-13T00:50:04.017Z,97560.00
2023-11-13T00:50:14.031Z,97562.00
2023-11-13T00:50:24.028Z,97560.00
2023-11-13T00:50:34.061Z,97552.00
2023-11-13T00:50:44.067Z,97560.00
2023-11-13T00:50:54.069Z,97560.00
2023-11-13T00:51:04.084Z,97560.00
2023-11-13T00:51:14.078Z,97568.00
2023-11-13T00:51:24.084Z,97568.00
2023-11-13T00:51:34.096Z,97560.00
2023-11-13T00:51:44.129Z,97556.00
2023-11-13T00:51:54.186Z,97554.00
2023-11-13T00:52:04.220Z,97560.00
2023-11-13T00:52:14.267Z,97554.00
2023-11-13T00:52:24.365Z,97556.00
2023-11-13T00:52:34.311Z,97554.00
2023-11-13T00:52:44.332Z,97556.00
2023-11-13T00:52:54.337Z,97558.00
2023-11-13T00:53:04.490Z,97562.00
2023-11-13T00:53:14.493Z,97564.00
2023-11-13T00:53:24.501Z,97564.00
2023-11-13T00:53:34.510Z,97564.00
2023-11-13T00:53:44.597Z,97562.00
2023-11-13T00:53:54.598Z,97562.00
2023-11-13T00:54:04.610Z,97566.00
2023-11-13T00:54:14.624Z,97558.00
2023-11-13T00:54:24.628Z,97560.00
2023-11-13T00:54:34.629Z,97560.00
2023-11-13T00:54:44.751Z,97558.00
2023-11-13T00:54:54.657Z,97556.00
2023-11-13T00:55:04.734Z,97556.00
2023-11-13T00:55:14.827Z,97552.00
2023-11-13T00:55:24.898Z,97560.00
2023-11-13T00:55:34.949Z,97562.00
2023-11-13T00:55:44.953Z,97566.00
2023-11-13T00:55:54.985Z,97562.00
2023-11-13T00:56:04.996Z,97562.00
2023-11-13T00:56:14.999Z,97564.00
2023-11-13T00:56:25.012Z,97566.00
2023-11-13T00:56:35.027Z,97560.00
2023-11-13T00:56:45.037Z,97558.00
2023-11-13T00:56:55.039Z,97566.00
2023-11-13T00:57:05.039Z,97564.00
2023-11-13T00:57:15.049Z,97564.00
2023-11-13T00:57:25.054Z,97568.00
2023-11-13T00:57:35.054Z,97572.00
2023-11-13T00:57:45.155Z,97574.00
2023-11-13T00:57:55.220Z,97578.00
2023-11-13T00:58:05.309Z,97572.00
2023-11-13T00:58:15.648Z,97566.00
2023-11-13T00:58:25.748Z,97570.00
2023-11-13T00:58:35.721Z,97572.00
2023-11-13T00:58:45.723Z,97576.00
2023-11-13T00:58:55.737Z,97580.00
2023-11-13T00:59:05.739Z,97578.00
2023-11-13T00:59:15.747Z,97583.00
2023-11-13T00:59:25.761Z,97576.00
2023-11-13T00:59:35.769Z,97583.00
2023-11-13T00:59:45.777Z,97585.00
2023-11-13T00:59:55.820Z,97589.00
2023-11-13T01:00:05.864Z,97593.00
2023-11-13T01:00:15.881Z,97591.00
2023-11-13T01:00:25.872Z,97585.00
2023-11-13T01:00:35.873Z,97585.00
2023-11-13T01:00:45.910Z,97583.00
2023-11-13T01:00:55.974Z,97583.00
2023-11-13T01:01:06.070Z,97583.00
2023-11-13T01:01:16.246Z,97585.00
2023-11-13T01:01:26.243Z,97587.00
2023-11-13T01:01:36.293Z,97587.00
2023-11-13T01:01:46.291Z,97585.00
2023-11-13T01:01:56.340Z,97585.00
2023-11-13T01:02:06.384Z,97583.00
2023-11-13T01:02:16.772Z,97580.00
2023-11-13T01:02:26.865Z,97578.00
2023-11-13T01:02:36.974Z,97574.00
2023-11-13T01:02:47.394Z,97572.00
2023-11-13T01:02:57.425Z,97568.00
2023-11-13T01:03:07.399Z,97564.00
2023-11-13T01:03:17.489Z,97560.00
2023-11-13T01:03:27.544Z,97562.00
2023-11-13T01:03:37.688Z,97560.00
2023-11-13T01:03:47.772Z,97562.00
2023-11-13T01:03:57.693Z,97562.00
2023-11-13T01:04:07.745Z,97564.00
2023-11-13T01:04:17.768Z,97566.00
2023-11-13T01:04:27.756Z,97570.00
2023-11-13T01:04:37.826Z,97568.00
2023-11-13T01:04:47.837Z,97568.00
2023-11-13T01:04:57.826Z,97566.00
2023-11-13T01:05:07.867Z,97566.00
2023-11-13T01:05:17.877Z,97566.00
2023-11-13T01:05:27.879Z,97566.00
2023-11-13T01:05:37.877Z,97566.00
2023-11-13T01:05:47.891Z,97566.00
2023-11-13T01:05:57.895Z,97572.00
2023-11-13T01:06:07.913Z,97572.00
2023-11-13T01:06:18.006Z,97574.00
2023-11-13T01:06:28.024Z,97566.00
2023-11-13T01:06:38.026Z,97570.00
2023-11-13T01:06:48.040Z,97576.00
2023-11-13T01:06:58.075Z,97578.00
2023-11-13T01:07:08.144Z,97572.00
2023-11-13T01:07:18.210Z,97566.00
2023-11-13T01:07:28.224Z,97572.00
2023-11-13T01:07:38.219Z,97578.00
2023-11-13T01:07:48.221Z,97578.00
2023-11-13T01:07:58.226Z,97580.00
2023-11-13T01:08:08.233Z,97582.00
2023-11-13T01:08:18.238Z,97583.00
2023-11-13T01:08:28.240Z,97583.00
2023-11-13T01:08:38.250Z,97582.00
2023-11-13T01:08:48.371Z,97582.00
2023-11-13T01:08:58.380Z,97580.00
2023-11-13T01:09:08.636Z,97580.00
2023-11-13T01:09:18.645Z,97578.00
2023-11-13T01:09:28.667Z,97580.00
2023-11-13T01:09:38.668Z,97576.00
2023-11-13T01:09:48.742Z,97578.00
2023-11-13T01:09:58.892Z,97578.00
2023-11-13T01:10:08.880Z,97582.00
2023-11-13T01:10:18.981Z,97587.00
2023-11-13T01:10:29.010Z,97583.00
2023-11-13T01:10:39.023Z,97580.00
2023-11-13T01:10:49.282Z,97578.00
2023-11-13T01:10:59.280Z,97574.00
2023-11-13T01:11:09.295Z,97576.00
2023-11-13T01:11:19.305Z,97578.00
2023-11-13T01:11:29.317Z,97572.00
2023-11-13T01:11:39.353Z,97570.00
2023-11-13T01:11:49.417Z,97570.00
2023-11-13T01:11:59.463Z,97568.00
2023-11-13T01:12:09.467Z,97568.00
2023-11-13T01:12:19.545Z,97566.00
2023-11-13T01:12:29.563Z,97568.00
2023-11-13T01:12:39.577Z,97564.00
2023-11-13T01:12:49.631Z,97568.00
2023-11-13T01:12:59.657Z,97568.00
2023-11-13T01:13:09.692Z,97564.00
2023-11-13T01:13:19.767Z,97566.00
2023-11-13T01:13:29.779Z,97566.00
2023-11-13T01:13:39.775Z,97568.00
2023-11-13T01:13:49.802Z,97564.00
2023-11-13T01:13:59.845Z,97560.00
2023-11-13T01:14:09.960Z,97560.00
2023-11-13T01:14:29.923Z,97560.00
2023-11-13T01:14:39.937Z,97564.00
2023-11-13T01:14:49.939Z,97566.00
2023-11-13T01:14:59.950Z,97568.00
2023-11-13T01:15:10.014Z,97570.00
2023-11-13T01:15:20.046Z,97570.00
2023-11-13T01:15:30.057Z,97576.00
2023-11-13T01:15:40.072Z,97580.00
2023-11-13T01:15:50.080Z,97580.00
2023-11-13T01:16:00.238Z,97576.00
2023-11-13T01:16:10.336Z,97583.00
2023-11-13T01:16:20.330Z,97583.00
2023-11-13T01:16:30.405Z,97583.00
2023-11-13T01:16:40.652Z,97582.00
2023-11-13T01:16:50.724Z,97587.00
2023-11-13T01:17:00.846Z,97585.00
2023-11-13T01:17:11.090Z,97587.00
2023-11-13T01:17:21.110Z,97587.00
2023-11-13T01:17:31.148Z,97589.00
2023-11-13T01:17:41.454Z,97591.00
2023-11-13T01:17:51.482Z,97589.00
2023-11-13T01:18:01.530Z,97589.00
2023-11-13T01:18:11.530Z,97589.00
2023-11-13T01:18:21.540Z,97593.00
2023-11-13T01:18:31.541Z,97591.00
2023-11-13T01:18:41.538Z,97591.00
2023-11-13T01:18:51.599Z,97591.00
2023-11-13T01:19:01.630Z,97595.00
2023-11-13T01:19:11.784Z,97593.00
2023-11-13T01:19:21.738Z,97599.00
2023-11-13T01:19:31.754Z,97597.00
2023-11-13T01:19:41.767Z,97599.00
2023-11-13T01:19:51.777Z,97603.00
2023-11-13T01:20:01.859Z,97613.00
2023-11-13T01:20:11.858Z,97611.00
2023-11-13T01:20:21.854Z,97607.00
2023-11-13T01:20:31.854Z,97607.00
2023-11-13T01:20:41.865Z,97609.00
2023-11-13T01:20:51.862Z,97611.00
2023-11-13T01:21:01.874Z,97611.00
2023-11-13T01:21:11.875Z,97615.00
2023-11-13T01:21:21.885Z,97613.00
2023-11-13T01:21:31.886Z,97609.00
2023-11-13T01:21:41.893Z,97609.00
2023-11-13T01:21:51.918Z,97603.00
2023-11-13T01:22:01.993Z,97609.00
2023-11-13T01:22:12.101Z,97613.00
2023-11-13T01:22:22.136Z,97611.00
2023-11-13T01:22:32.145Z,97611.00
2023-11-13T01:22:42.142Z,97607.00
2023-11-13T01:22:52.178Z,97603.00
2023-11-13T01:23:02.188Z,97609.00
2023-11-13T01:23:12.196Z,97613.00
2023-11-13T01:23:22.196Z,97613.00
2023-11-13T01:23:32.204Z,97615.00
2023-11-13T01:23:42.207Z,97613.00
2023-11-13T01:23:52.212Z,97617.00
2023-11-13T01:24:02.220Z,97611.00
2023-11-13T01:24:12.231Z,97613.00
2023-11-13T01:24:22.238Z,97615.00
2023-11-13T01:24:32.258Z,97613.00
2023-11-13T01:24:42.265Z,97607.00
2023-11-13T01:24:52.279Z,97607.00
2023-11-13T01:25:02.339Z,97609.00
2023-11-13T01:25:12.382Z,97611.00
2023-11-13T01:25:22.406Z,97613.00
2023-11-13T01:25:32.465Z,97613.00
2023-11-13T01:25:42.467Z,97609.00
2023-11-13T01:25:52.473Z,97611.00
2023-11-13T01:26:02.477Z,97611.00
2023-11-13T01:26:12.483Z,97611.00
2023-11-13T01:26:22.488Z,97615.00
2023-11-13T01:26:32.504Z,97611.00
2023-11-13T01:26:42.522Z,97613.00
2023-11-13T01:26:52.522Z,97619.00
2023-11-13T01:27:02.575Z,97621.00
2023-11-13T01:27:12.578Z,97623.00
2023-11-13T01:27:22.588Z,97621.00
2023-11-13T01:27:32.594Z,97621.00
2023-11-13T01:27:42.640Z,97623.00
2023-11-13T01:27:52.694Z,97627.00
2023-11-13T01:28:02.721Z,97630.00
2023-11-13T01:28:12.731Z,97627.00
2023-11-13T01:28:22.805Z,97629.00
2023-11-13T01:28:32.855Z,97630.00
2023-11-13T01:28:42.848Z,97632.00
2023-11-13T01:28:52.856Z,97634.00
2023-11-13T01:29:02.861Z,97632.00
2023-11-13T01:29:12.865Z,97630.00
2023-11-13T01:29:22.873Z,97627.00
2023-11-13T01:29:32.875Z,97630.00
2023-11-13T01:29:43.005Z,97629.00
2023-11-13T01:29:53.274Z,97632.00
2023-11-13T01:30:03.285Z,97632.00
2023-11-13T01:30:13.288Z,97632.00
2023-11-13T01:30:23.335Z,97632.00
2023-11-13T01:30:33.335Z,97634.00
2023-11-13T01:30:43.348Z,97638.00
2023-11-13T01:30:53.365Z,97632.00
2023-11-13T01:31:03.401Z,97634.00
2023-11-13T01:31:13.495Z,97634.00
2023-11-13T01:31:23.532Z,97636.00
2023-11-13T01:31:33.531Z,97632.00
2023-11-13T01:31:43.548Z,97634.00
2023-11-13T01:31:53.555Z,97632.00
2023-11-13T01:32:03.603Z,97632.00
2023-11-13T01:32:13.702Z,97625.00
2023-11-13T01:32:23.749Z,97629.00
2023-11-13T01:32:33.802Z,97629.00
2023-11-13T01:32:44.120Z,97632.00
2023-11-13T01:32:54.171Z,97632.00
2023-11-13T01:33:04.269Z,97634.00
2023-11-13T01:33:14.345Z,97636.00
2023-11-13T01:33:24.376Z,97634.00
2023-11-13T01:33:34.444Z,97632.00
2023-11-13T01:33:44.491Z,97632.00
2023-11-13T01:33:54.684Z,97627.00
2023-11-13T01:34:04.815Z,97627.00
2023-11-13T01:34:14.713Z,97629.00
2023-11-13T01:34:24.726Z,97627.00
2023-11-13T01:34:34.806Z,97623.00
2023-11-13T01:34:44.765Z,97625.00
2023-11-13T01:34:54.773Z,97627.00
2023-11-13T01:35:04.815Z,97629.00
2023-11-13T01:35:14.813Z,97629.00
2023-11-13T01:35:24.835Z,97632.00
2023-11-13T01:35:34.841Z,97630.00
2023-11-13T01:35:44.855Z,97630.00
2023-11-13T01:35:54.859Z,97640.00
2023-11-13T01:36:04.873Z,97636.00
2023-11-13T01:36:14.868Z,97640.00
2023-11-13T01:36:24.870Z,97638.00
2023-11-13T01:36:34.876Z,97640.00
2023-11-13T01:36:44.900Z,97642.00
2023-11-13T01:36:54.959Z,97640.00
2023-11-13T01:37:04.968Z,97644.00
2023-11-13T01:37:15.025Z,97648.00
2023-11-13T01:37:25.040Z,97648.00
2023-11-13T01:37:35.124Z,97650.00
2023-11-13T01:37:45.132Z,97646.00
2023-11-13T01:37:55.165Z,97648.00
2023-11-13T01:38:05.154Z,97648.00
2023-11-13T01:38:15.165Z,97650.00
2023-11-13T01:38:25.175Z,97646.00
2023-11-13T01:38:35.185Z,97654.00
2023-11-13T01:38:45.209Z,97656.00
2023-11-13T01:38:55.204Z,97654.00
2023-11-13T01:39:05.212Z,97650.00
2023-11-13T01:39:15.232Z,97650.00
2023-11-13T01:39:25.250Z,97634.00
2023-11-13T01:39:35.247Z,97642.00
2023-11-13T01:39:45.289Z,97632.00
2023-11-13T01:39:55.356Z,97638.00
2023-11-13T01:40:05.409Z,97627.00
2023-11-13T01:40:15.575Z,97632.00
2023-11-13T01:40:25.590Z,97627.00
2023-11-13T01:40:35.629Z,97632.00
2023-11-13T01:40:45.636Z,97634.00
2023-11-13T01:40:55.765Z,97638.00
2023-11-13T01:41:05.771Z,97640.00
2023-11-13T01:41:15.767Z,97638.00
2023-11-13T01:41:25.793Z,97640.00
2023-11-13T01:41:35.804Z,97640.00
2023-11-13T01:41:45.808Z,97640.00
2023-11-13T01:41:55.803Z,97638.00
2023-11-13T01:42:05.809Z,97636.00
2023-11-13T01:42:15.811Z,97638.00
2023-11-13T01:42:25.815Z,97640.00
2023-11-13T01:42:35.824Z,97636.00
2023-11-13T01:42:45.883Z,97640.00
2023-11-13T01:42:55.897Z,97640.00
2023-11-13T01:43:05.933Z,97638.00
2023-11-13T01:43:15.952Z,97636.00
2023-11-13T01:43:26.087Z,97638.00
2023-11-13T01:43:35.957Z,97638.00
2023-11-13T01:43:45.960Z,97640.00
2023-11-13T01:43:55.971Z,97642.00
2023-11-13T01:44:05.988Z,97644.00
2023-11-13T01:44:15.992Z,97646.00
2023-11-13T01:44:36.005Z,97644.00
2023-11-13T01:44:46.016Z,97636.00
2023-11-13T01:44:56.021Z,97638.00
2023-11-13T01:45:06.048Z,97640.00
2023-11-13T01:45:16.045Z,97642.00
2023-11-13T01:45:26.087Z,97640.00
2023-11-13T01:45:36.076Z,97638.00
2023-11-13T01:45:46.107Z,97638.00
2023-11-13T01:45:56.336Z,97638.00
2023-11-13T01:46:06.208Z,97634.00
2023-11-13T01:46:17.827Z,97634.00
2023-11-13T01:46:26.409Z,97629.00
2023-11-13T01:46:36.491Z,97630.00
2023-11-13T01:46:46.657Z,97632.00
2023-11-13T01:46:56.550Z,97638.00
2023-11-13T01:47:06.604Z,97632.00
2023-11-13T01:47:16.990Z,97630.00
2023-11-13T01:47:27.047Z,97630.00
2023-11-13T01:47:37.090Z,97630.00
2023-11-13T01:47:47.392Z,97625.00
2023-11-13T01:47:57.446Z,97627.00
2023-11-13T01:48:07.484Z,97625.00
2023-11-13T01:48:17.757Z,97621.00
2023-11-13T01:48:27.896Z,97627.00
2023-11-13T01:48:37.776Z,97629.00
2023-11-13T01:48:47.812Z,97629.00
2023-11-13T01:48:57.839Z,97627.00
2023-11-13T01:49:07.880Z,97625.00
2023-11-13T01:49:17.905Z,97625.00
2023-11-13T01:49:27.964Z,97623.00
2023-11-13T01:49:37.976Z,97625.00
2023-11-13T01:49:47.987Z,97625.00
2023-11-13T01:49:57.990Z,97627.00
2023-11-13T01:50:07.995Z,97621.00
2023-11-13T01:50:18.002Z,97619.00
2023-11-13T01:50:28.004Z,97617.00
2023-11-13T01:50:38.008Z,97621.00
2023-11-13T01:50:48.022Z,97615.00
2023-11-13T01:50:58.016Z,97619.00
2023-11-13T01:51:08.026Z,97623.00
2023-11-13T01:51:18.038Z,97623.00
2023-11-13T01:51:28.047Z,97621.00
2023-11-13T01:51:38.057Z,97621.00
2023-11-13T01:51:48.101Z,97625.00
2023-11-13T01:51:58.134Z,97621.00
2023-11-13T01:52:08.168Z,97615.00
2023-11-13T01:52:18.185Z,97613.00
2023-11-13T01:52:28.304Z,97615.00
2023-11-13T01:52:38.316Z,97615.00
2023-11-13T01:52:48.327Z,97613.00
2023-11-13T01:52:58.334Z,97617.00
2023-11-13T01:53:08.344Z,97617.00
2023-11-13T01:53:18.363Z,97613.00
2023-11-13T01:53:28.628Z,97617.00
2023-11-13T01:53:38.647Z,97615.00
2023-11-13T01:53:48.654Z,97615.00
2023-11-13T01:53:58.663Z,97621.00
2023-11-13T01:54:08.679Z,97615.00
2023-11-13T01:54:18.680Z,97617.00
2023-11-13T01:54:28.694Z,97615.00
2023-11-13T01:54:38.720Z,97615.00
2023-11-13T01:54:48.750Z,97615.00
2023-11-13T01:54:58.774Z,97617.00
2023-11-13T01:55:08.805Z,97617.00
2023-11-13T01:55:18.870Z,97615.00
2023-11-13T01:55:28.926Z,97615.00
2023-11-13T01:55:38.920Z,97613.00
2023-11-13T01:55:48.955Z,97609.00
2023-11-13T01:55:58.961Z,97607.00
2023-11-13T01:56:08.967Z,97607.00
2023-11-13T01:56:18.966Z,97609.00
2023-11-13T01:56:29.092Z,97609.00
2023-11-13T01:56:39.099Z,97607.00
2023-11-13T01:56:49.109Z,97607.00
2023-11-13T01:56:59.104Z,97609.00
2023-11-13T01:57:09.121Z,97609.00
2023-11-13T01:57:19.129Z,97607.00
2023-11-13T01:57:29.394Z,97611.00
2023-11-13T01:57:39.392Z,97613.00
2023-11-13T01:57:49.430Z,97611.00
2023-11-13T01:57:59.441Z,97611.00
2023-11-13T01:58:09.469Z,97605.00